sensor_id;sensor_type;location;lat;lon;timestamp;P1;durP1;ratioP1;P2;durP2;ratioP2
2646;SDS011;1333;50.958;6.770;2024-01-30T00:02:09;17.83;;;9.37;;
2646;SDS011;1333;50.958;6.770;2024-01-30T00:04:34;14.43;;;10.17;;
2646;SDS011;1333;50.958;6.770;2024-01-30T00:07:00;14.03;;;10.90;;
2646;SDS011;1333;50.958;6.770;2024-01-30T00:09:25;13.50;;;9.67;;
2646;SDS011;1333;50.958;6.770;2024-01-30T00:11:51;11.20;;;9.37;;
2646;SDS011;1333;50.958;6.770;2024-01-30T00:14:16;12.40;;;9.37;;
2646;SDS011;1333;50.958;6.770;2024-01-30T00:16:42;18.90;;;9.53;;
2646;SDS011;1333;50.958;6.770;2024-01-30T00:19:07;12.60;;;8.50;;
2646;SDS011;1333;50.958;6.770;2024-01-30T00:21:33;10.90;;;9.37;;
2646;SDS011;1333;50.958;6.770;2024-01-30T00:23:59;14.77;;;8.57;;
2646;SDS011;1333;50.958;6.770;2024-01-30T00:26:24;19.63;;;10.30;;
2646;SDS011;1333;50.958;6.770;2024-01-30T00:28:50;12.73;;;9.67;;
2646;SDS011;1333;50.958;6.770;2024-01-30T00:31:15;10.93;;;9.77;;
2646;SDS011;1333;50.958;6.770;2024-01-30T00:33:41;16.43;;;10.17;;
2646;SDS011;1333;50.958;6.770;2024-01-30T00:36:07;15.80;;;10.37;;
2646;SDS011;1333;50.958;6.770;2024-01-30T00:38:34;11.70;;;8.20;;
2646;SDS011;1333;50.958;6.770;2024-01-30T00:40:59;12.63;;;9.33;;
2646;SDS011;1333;50.958;6.770;2024-01-30T00:43:26;17.00;;;10.33;;
2646;SDS011;1333;50.958;6.770;2024-01-30T00:45:52;13.33;;;9.87;;
2646;SDS011;1333;50.958;6.770;2024-01-30T00:48:18;12.27;;;8.70;;
2646;SDS011;1333;50.958;6.770;2024-01-30T00:50:43;18.83;;;11.57;;
2646;SDS011;1333;50.958;6.770;2024-01-30T00:53:09;13.13;;;9.90;;
2646;SDS011;1333;50.958;6.770;2024-01-30T00:55:35;24.13;;;11.63;;
2646;SDS011;1333;50.958;6.770;2024-01-30T00:58:00;13.00;;;9.20;;
2646;SDS011;1333;50.958;6.770;2024-01-30T01:00:26;13.80;;;9.00;;
2646;SDS011;1333;50.958;6.770;2024-01-30T01:02:55;17.73;;;10.73;;
2646;SDS011;1333;50.958;6.770;2024-01-30T01:05:20;16.37;;;10.27;;
2646;SDS011;1333;50.958;6.770;2024-01-30T01:07:46;18.93;;;10.70;;
2646;SDS011;1333;50.958;6.770;2024-01-30T01:10:16;14.13;;;11.83;;
2646;SDS011;1333;50.958;6.770;2024-01-30T01:12:42;16.30;;;11.27;;
2646;SDS011;1333;50.958;6.770;2024-01-30T01:15:08;11.67;;;9.57;;
2646;SDS011;1333;50.958;6.770;2024-01-30T01:17:37;22.17;;;11.80;;
2646;SDS011;1333;50.958;6.770;2024-01-30T01:20:03;15.37;;;10.50;;
2646;SDS011;1333;50.958;6.770;2024-01-30T01:22:30;17.13;;;10.97;;
2646;SDS011;1333;50.958;6.770;2024-01-30T01:24:55;18.03;;;11.33;;
2646;SDS011;1333;50.958;6.770;2024-01-30T01:27:21;16.50;;;10.73;;
2646;SDS011;1333;50.958;6.770;2024-01-30T01:29:47;20.03;;;10.20;;
2646;SDS011;1333;50.958;6.770;2024-01-30T01:32:12;16.23;;;11.67;;
2646;SDS011;1333;50.958;6.770;2024-01-30T01:34:38;15.60;;;10.37;;
2646;SDS011;1333;50.958;6.770;2024-01-30T01:37:03;13.23;;;9.00;;
2646;SDS011;1333;50.958;6.770;2024-01-30T01:39:29;17.20;;;10.47;;
2646;SDS011;1333;50.958;6.770;2024-01-30T01:41:54;14.17;;;9.87;;
2646;SDS011;1333;50.958;6.770;2024-01-30T01:44:20;13.13;;;10.00;;
2646;SDS011;1333;50.958;6.770;2024-01-30T01:46:45;14.53;;;8.90;;
2646;SDS011;1333;50.958;6.770;2024-01-30T01:49:11;16.33;;;11.93;;
2646;SDS011;1333;50.958;6.770;2024-01-30T01:51:38;13.63;;;9.03;;
2646;SDS011;1333;50.958;6.770;2024-01-30T01:54:06;10.87;;;8.00;;
2646;SDS011;1333;50.958;6.770;2024-01-30T01:56:32;14.00;;;9.83;;
2646;SDS011;1333;50.958;6.770;2024-01-30T01:58:59;12.00;;;9.53;;
2646;SDS011;1333;50.958;6.770;2024-01-30T02:01:29;10.87;;;9.70;;
2646;SDS011;1333;50.958;6.770;2024-01-30T02:03:56;12.93;;;9.57;;
2646;SDS011;1333;50.958;6.770;2024-01-30T02:06:21;13.70;;;8.93;;
2646;SDS011;1333;50.958;6.770;2024-01-30T02:08:47;15.97;;;10.20;;
2646;SDS011;1333;50.958;6.770;2024-01-30T02:11:13;15.73;;;10.20;;
2646;SDS011;1333;50.958;6.770;2024-01-30T02:13:39;17.00;;;10.50;;
2646;SDS011;1333;50.958;6.770;2024-01-30T02:16:06;10.17;;;8.20;;
2646;SDS011;1333;50.958;6.770;2024-01-30T02:18:31;11.83;;;9.03;;
2646;SDS011;1333;50.958;6.770;2024-01-30T02:20:58;10.57;;;9.57;;
2646;SDS011;1333;50.958;6.770;2024-01-30T02:23:26;13.50;;;10.17;;
2646;SDS011;1333;50.958;6.770;2024-01-30T02:25:52;15.57;;;10.37;;
2646;SDS011;1333;50.958;6.770;2024-01-30T02:28:18;13.33;;;9.80;;
2646;SDS011;1333;50.958;6.770;2024-01-30T02:30:45;14.47;;;9.83;;
2646;SDS011;1333;50.958;6.770;2024-01-30T02:33:11;24.40;;;10.17;;
2646;SDS011;1333;50.958;6.770;2024-01-30T02:35:37;14.33;;;11.10;;
2646;SDS011;1333;50.958;6.770;2024-01-30T02:38:03;13.93;;;9.17;;
2646;SDS011;1333;50.958;6.770;2024-01-30T02:40:29;13.80;;;9.77;;
2646;SDS011;1333;50.958;6.770;2024-01-30T02:42:54;10.50;;;8.80;;
2646;SDS011;1333;50.958;6.770;2024-01-30T02:45:20;17.37;;;9.10;;
2646;SDS011;1333;50.958;6.770;2024-01-30T02:47:46;13.43;;;8.80;;
2646;SDS011;1333;50.958;6.770;2024-01-30T02:50:11;13.47;;;9.27;;
2646;SDS011;1333;50.958;6.770;2024-01-30T02:52:37;12.70;;;8.40;;
2646;SDS011;1333;50.958;6.770;2024-01-30T02:55:03;11.87;;;8.30;;
2646;SDS011;1333;50.958;6.770;2024-01-30T02:57:28;16.10;;;8.57;;
2646;SDS011;1333;50.958;6.770;2024-01-30T02:59:54;10.33;;;8.63;;
2646;SDS011;1333;50.958;6.770;2024-01-30T03:02:19;16.20;;;8.30;;
2646;SDS011;1333;50.958;6.770;2024-01-30T03:04:45;14.13;;;7.60;;
2646;SDS011;1333;50.958;6.770;2024-01-30T03:07:11;14.87;;;9.60;;
2646;SDS011;1333;50.958;6.770;2024-01-30T03:09:37;13.63;;;8.80;;
2646;SDS011;1333;50.958;6.770;2024-01-30T03:12:03;13.00;;;9.03;;
2646;SDS011;1333;50.958;6.770;2024-01-30T03:14:32;13.90;;;8.87;;
2646;SDS011;1333;50.958;6.770;2024-01-30T03:16:58;14.93;;;8.53;;
2646;SDS011;1333;50.958;6.770;2024-01-30T03:19:23;12.87;;;9.03;;
2646;SDS011;1333;50.958;6.770;2024-01-30T03:21:49;13.87;;;9.00;;
2646;SDS011;1333;50.958;6.770;2024-01-30T03:24:15;17.77;;;9.17;;
2646;SDS011;1333;50.958;6.770;2024-01-30T03:26:40;16.00;;;8.40;;
2646;SDS011;1333;50.958;6.770;2024-01-30T03:29:06;13.53;;;8.80;;
2646;SDS011;1333;50.958;6.770;2024-01-30T03:31:32;12.37;;;8.33;;
2646;SDS011;1333;50.958;6.770;2024-01-30T03:33:58;22.90;;;9.43;;
2646;SDS011;1333;50.958;6.770;2024-01-30T03:36:23;14.93;;;8.63;;
2646;SDS011;1333;50.958;6.770;2024-01-30T03:38:49;13.43;;;9.50;;
2646;SDS011;1333;50.958;6.770;2024-01-30T03:41:15;14.27;;;8.77;;
2646;SDS011;1333;50.958;6.770;2024-01-30T03:43:40;12.57;;;8.17;;
2646;SDS011;1333;50.958;6.770;2024-01-30T03:46:06;11.30;;;7.77;;
2646;SDS011;1333;50.958;6.770;2024-01-30T03:48:31;12.70;;;8.73;;
2646;SDS011;1333;50.958;6.770;2024-01-30T03:50:57;11.67;;;8.13;;
2646;SDS011;1333;50.958;6.770;2024-01-30T03:53:22;11.67;;;8.67;;
2646;SDS011;1333;50.958;6.770;2024-01-30T03:55:48;14.23;;;8.47;;
2646;SDS011;1333;50.958;6.770;2024-01-30T03:58:13;19.23;;;9.10;;
2646;SDS011;1333;50.958;6.770;2024-01-30T04:00:39;16.23;;;9.73;;
2646;SDS011;1333;50.958;6.770;2024-01-30T04:03:05;12.27;;;8.53;;
2646;SDS011;1333;50.958;6.770;2024-01-30T04:05:31;12.87;;;9.43;;
2646;SDS011;1333;50.958;6.770;2024-01-30T04:07:57;12.97;;;9.60;;
2646;SDS011;1333;50.958;6.770;2024-01-30T04:10:23;15.83;;;9.20;;
2646;SDS011;1333;50.958;6.770;2024-01-30T04:12:49;11.27;;;8.87;;
2646;SDS011;1333;50.958;6.770;2024-01-30T04:15:16;20.10;;;9.70;;
2646;SDS011;1333;50.958;6.770;2024-01-30T04:17:42;11.53;;;8.67;;
2646;SDS011;1333;50.958;6.770;2024-01-30T04:20:09;15.43;;;8.70;;
2646;SDS011;1333;50.958;6.770;2024-01-30T04:22:42;16.43;;;10.87;;
2646;SDS011;1333;50.958;6.770;2024-01-30T04:25:09;14.00;;;9.90;;
2646;SDS011;1333;50.958;6.770;2024-01-30T04:27:34;13.60;;;10.50;;
2646;SDS011;1333;50.958;6.770;2024-01-30T04:30:00;12.93;;;9.10;;
2646;SDS011;1333;50.958;6.770;2024-01-30T04:32:25;16.40;;;8.93;;
2646;SDS011;1333;50.958;6.770;2024-01-30T04:34:50;11.67;;;9.20;;
2646;SDS011;1333;50.958;6.770;2024-01-30T04:37:16;12.10;;;8.17;;
2646;SDS011;1333;50.958;6.770;2024-01-30T04:39:41;11.63;;;8.47;;
2646;SDS011;1333;50.958;6.770;2024-01-30T04:42:07;11.20;;;8.20;;
2646;SDS011;1333;50.958;6.770;2024-01-30T04:44:33;14.03;;;9.57;;
2646;SDS011;1333;50.958;6.770;2024-01-30T04:46:58;12.37;;;8.70;;
2646;SDS011;1333;50.958;6.770;2024-01-30T04:49:26;13.40;;;8.80;;
2646;SDS011;1333;50.958;6.770;2024-01-30T04:51:52;12.93;;;9.03;;
2646;SDS011;1333;50.958;6.770;2024-01-30T04:54:17;13.47;;;9.03;;
2646;SDS011;1333;50.958;6.770;2024-01-30T04:56:43;11.10;;;8.80;;
2646;SDS011;1333;50.958;6.770;2024-01-30T04:59:09;11.60;;;9.30;;
2646;SDS011;1333;50.958;6.770;2024-01-30T05:01:34;10.63;;;8.60;;
2646;SDS011;1333;50.958;6.770;2024-01-30T05:04:00;13.43;;;8.53;;
2646;SDS011;1333;50.958;6.770;2024-01-30T05:06:26;11.53;;;7.90;;
2646;SDS011;1333;50.958;6.770;2024-01-30T05:08:52;13.57;;;8.30;;
2646;SDS011;1333;50.958;6.770;2024-01-30T05:11:18;13.50;;;10.53;;
2646;SDS011;1333;50.958;6.770;2024-01-30T05:13:43;16.40;;;9.97;;
2646;SDS011;1333;50.958;6.770;2024-01-30T05:16:09;13.23;;;8.80;;
2646;SDS011;1333;50.958;6.770;2024-01-30T05:18:34;24.97;;;9.80;;
2646;SDS011;1333;50.958;6.770;2024-01-30T05:21:00;12.00;;;9.00;;
2646;SDS011;1333;50.958;6.770;2024-01-30T05:23:26;17.73;;;10.67;;
2646;SDS011;1333;50.958;6.770;2024-01-30T05:25:52;17.57;;;10.10;;
2646;SDS011;1333;50.958;6.770;2024-01-30T05:28:17;18.43;;;11.27;;
2646;SDS011;1333;50.958;6.770;2024-01-30T05:30:43;14.67;;;9.50;;
2646;SDS011;1333;50.958;6.770;2024-01-30T05:33:08;11.80;;;9.33;;
2646;SDS011;1333;50.958;6.770;2024-01-30T05:35:34;12.50;;;9.00;;
2646;SDS011;1333;50.958;6.770;2024-01-30T05:38:00;15.03;;;10.40;;
2646;SDS011;1333;50.958;6.770;2024-01-30T05:40:25;12.03;;;10.83;;
2646;SDS011;1333;50.958;6.770;2024-01-30T05:42:52;15.30;;;12.53;;
2646;SDS011;1333;50.958;6.770;2024-01-30T05:45:17;14.30;;;12.80;;
2646;SDS011;1333;50.958;6.770;2024-01-30T05:47:43;15.30;;;12.30;;
2646;SDS011;1333;50.958;6.770;2024-01-30T05:50:08;17.53;;;9.40;;
2646;SDS011;1333;50.958;6.770;2024-01-30T05:52:34;10.93;;;8.93;;
2646;SDS011;1333;50.958;6.770;2024-01-30T05:55:00;10.97;;;8.00;;
2646;SDS011;1333;50.958;6.770;2024-01-30T05:57:25;11.63;;;8.53;;
2646;SDS011;1333;50.958;6.770;2024-01-30T05:59:51;10.83;;;7.20;;
2646;SDS011;1333;50.958;6.770;2024-01-30T06:02:17;14.70;;;7.70;;
2646;SDS011;1333;50.958;6.770;2024-01-30T06:04:42;11.37;;;7.93;;
2646;SDS011;1333;50.958;6.770;2024-01-30T06:07:09;9.47;;;7.50;;
2646;SDS011;1333;50.958;6.770;2024-01-30T06:09:35;8.90;;;7.40;;
2646;SDS011;1333;50.958;6.770;2024-01-30T06:12:00;16.30;;;8.70;;
2646;SDS011;1333;50.958;6.770;2024-01-30T06:14:26;11.30;;;8.27;;
2646;SDS011;1333;50.958;6.770;2024-01-30T06:16:51;11.10;;;7.57;;
2646;SDS011;1333;50.958;6.770;2024-01-30T06:19:16;11.07;;;7.40;;
2646;SDS011;1333;50.958;6.770;2024-01-30T06:21:42;22.77;;;7.50;;
2646;SDS011;1333;50.958;6.770;2024-01-30T06:24:08;11.23;;;6.90;;
2646;SDS011;1333;50.958;6.770;2024-01-30T06:26:33;13.43;;;8.27;;
2646;SDS011;1333;50.958;6.770;2024-01-30T06:28:59;12.13;;;7.40;;
2646;SDS011;1333;50.958;6.770;2024-01-30T06:31:25;16.73;;;8.27;;
2646;SDS011;1333;50.958;6.770;2024-01-30T06:33:50;18.13;;;8.93;;
2646;SDS011;1333;50.958;6.770;2024-01-30T06:36:16;10.43;;;7.73;;
2646;SDS011;1333;50.958;6.770;2024-01-30T06:38:41;8.30;;;7.40;;
2646;SDS011;1333;50.958;6.770;2024-01-30T06:41:07;18.13;;;9.47;;
2646;SDS011;1333;50.958;6.770;2024-01-30T06:43:32;12.90;;;9.00;;
2646;SDS011;1333;50.958;6.770;2024-01-30T06:45:58;11.60;;;8.40;;
2646;SDS011;1333;50.958;6.770;2024-01-30T06:48:24;13.20;;;9.57;;
2646;SDS011;1333;50.958;6.770;2024-01-30T06:50:50;13.97;;;9.40;;
2646;SDS011;1333;50.958;6.770;2024-01-30T06:53:18;12.10;;;8.40;;
2646;SDS011;1333;50.958;6.770;2024-01-30T06:55:44;13.37;;;8.17;;
2646;SDS011;1333;50.958;6.770;2024-01-30T06:58:09;12.57;;;8.60;;
2646;SDS011;1333;50.958;6.770;2024-01-30T07:00:35;10.60;;;8.30;;
2646;SDS011;1333;50.958;6.770;2024-01-30T07:03:01;14.10;;;9.00;;
2646;SDS011;1333;50.958;6.770;2024-01-30T07:05:27;14.80;;;9.80;;
2646;SDS011;1333;50.958;6.770;2024-01-30T07:07:52;13.33;;;8.87;;
2646;SDS011;1333;50.958;6.770;2024-01-30T07:10:18;18.23;;;7.57;;
2646;SDS011;1333;50.958;6.770;2024-01-30T07:12:43;13.03;;;9.67;;
2646;SDS011;1333;50.958;6.770;2024-01-30T07:15:09;13.07;;;8.70;;
2646;SDS011;1333;50.958;6.770;2024-01-30T07:17:35;11.30;;;8.60;;
2646;SDS011;1333;50.958;6.770;2024-01-30T07:20:01;15.40;;;9.47;;
2646;SDS011;1333;50.958;6.770;2024-01-30T07:22:28;15.03;;;8.83;;
2646;SDS011;1333;50.958;6.770;2024-01-30T07:24:55;8.37;;;7.53;;
2646;SDS011;1333;50.958;6.770;2024-01-30T07:27:20;13.37;;;9.27;;
2646;SDS011;1333;50.958;6.770;2024-01-30T07:29:46;10.10;;;8.00;;
2646;SDS011;1333;50.958;6.770;2024-01-30T07:32:12;11.50;;;8.60;;
2646;SDS011;1333;50.958;6.770;2024-01-30T07:34:37;15.03;;;9.10;;
2646;SDS011;1333;50.958;6.770;2024-01-30T07:37:03;13.80;;;8.40;;
2646;SDS011;1333;50.958;6.770;2024-01-30T07:39:28;12.07;;;8.30;;
2646;SDS011;1333;50.958;6.770;2024-01-30T07:41:54;10.37;;;7.43;;
2646;SDS011;1333;50.958;6.770;2024-01-30T07:44:20;14.63;;;7.93;;
2646;SDS011;1333;50.958;6.770;2024-01-30T07:46:45;11.50;;;8.30;;
2646;SDS011;1333;50.958;6.770;2024-01-30T07:49:11;12.20;;;7.90;;
2646;SDS011;1333;50.958;6.770;2024-01-30T07:51:39;15.10;;;9.67;;
2646;SDS011;1333;50.958;6.770;2024-01-30T07:54:04;9.47;;;6.53;;
2646;SDS011;1333;50.958;6.770;2024-01-30T07:56:30;7.60;;;6.60;;
2646;SDS011;1333;50.958;6.770;2024-01-30T07:58:55;12.20;;;6.67;;
2646;SDS011;1333;50.958;6.770;2024-01-30T08:01:21;13.00;;;8.23;;
2646;SDS011;1333;50.958;6.770;2024-01-30T08:03:46;12.50;;;7.93;;
2646;SDS011;1333;50.958;6.770;2024-01-30T08:06:12;11.07;;;7.33;;
2646;SDS011;1333;50.958;6.770;2024-01-30T08:08:37;9.67;;;6.13;;
2646;SDS011;1333;50.958;6.770;2024-01-30T08:11:03;9.87;;;8.33;;
2646;SDS011;1333;50.958;6.770;2024-01-30T08:13:29;11.57;;;7.20;;
2646;SDS011;1333;50.958;6.770;2024-01-30T08:15:54;15.17;;;7.73;;
2646;SDS011;1333;50.958;6.770;2024-01-30T08:18:20;16.20;;;9.00;;
2646;SDS011;1333;50.958;6.770;2024-01-30T08:20:45;13.93;;;9.53;;
2646;SDS011;1333;50.958;6.770;2024-01-30T08:23:11;11.63;;;8.30;;
2646;SDS011;1333;50.958;6.770;2024-01-30T08:25:36;12.60;;;9.33;;
2646;SDS011;1333;50.958;6.770;2024-01-30T08:28:02;13.00;;;8.40;;
2646;SDS011;1333;50.958;6.770;2024-01-30T08:30:29;10.07;;;7.43;;
2646;SDS011;1333;50.958;6.770;2024-01-30T08:32:54;9.07;;;6.50;;
2646;SDS011;1333;50.958;6.770;2024-01-30T08:35:20;11.50;;;7.47;;
2646;SDS011;1333;50.958;6.770;2024-01-30T08:37:45;13.97;;;8.90;;
2646;SDS011;1333;50.958;6.770;2024-01-30T08:40:11;10.37;;;8.67;;
2646;SDS011;1333;50.958;6.770;2024-01-30T08:42:36;9.57;;;8.37;;
2646;SDS011;1333;50.958;6.770;2024-01-30T08:45:02;14.70;;;9.93;;
2646;SDS011;1333;50.958;6.770;2024-01-30T08:47:29;13.47;;;9.80;;
2646;SDS011;1333;50.958;6.770;2024-01-30T08:49:55;8.23;;;7.43;;
2646;SDS011;1333;50.958;6.770;2024-01-30T08:52:20;8.43;;;6.80;;
2646;SDS011;1333;50.958;6.770;2024-01-30T08:54:46;11.73;;;8.73;;
2646;SDS011;1333;50.958;6.770;2024-01-30T08:57:11;11.00;;;6.30;;
2646;SDS011;1333;50.958;6.770;2024-01-30T08:59:37;10.60;;;8.20;;
2646;SDS011;1333;50.958;6.770;2024-01-30T09:02:02;14.97;;;7.60;;
2646;SDS011;1333;50.958;6.770;2024-01-30T09:04:29;10.20;;;7.43;;
2646;SDS011;1333;50.958;6.770;2024-01-30T09:06:54;9.30;;;6.70;;
2646;SDS011;1333;50.958;6.770;2024-01-30T09:09:20;12.37;;;7.10;;
2646;SDS011;1333;50.958;6.770;2024-01-30T09:11:45;9.43;;;6.90;;
2646;SDS011;1333;50.958;6.770;2024-01-30T09:14:11;8.40;;;6.97;;
2646;SDS011;1333;50.958;6.770;2024-01-30T09:16:37;12.00;;;7.50;;
2646;SDS011;1333;50.958;6.770;2024-01-30T09:19:02;10.80;;;7.27;;
2646;SDS011;1333;50.958;6.770;2024-01-30T09:21:28;10.20;;;7.37;;
2646;SDS011;1333;50.958;6.770;2024-01-30T09:24:01;11.70;;;6.90;;
2646;SDS011;1333;50.958;6.770;2024-01-30T09:26:28;8.50;;;6.37;;
2646;SDS011;1333;50.958;6.770;2024-01-30T09:28:54;8.47;;;7.13;;
2646;SDS011;1333;50.958;6.770;2024-01-30T09:31:19;10.57;;;7.60;;
2646;SDS011;1333;50.958;6.770;2024-01-30T09:33:45;8.70;;;7.43;;
2646;SDS011;1333;50.958;6.770;2024-01-30T09:36:12;9.63;;;6.60;;
2646;SDS011;1333;50.958;6.770;2024-01-30T09:38:40;7.43;;;6.47;;
2646;SDS011;1333;50.958;6.770;2024-01-30T09:41:06;10.50;;;7.53;;
2646;SDS011;1333;50.958;6.770;2024-01-30T09:43:35;8.63;;;6.23;;
2646;SDS011;1333;50.958;6.770;2024-01-30T09:46:03;9.47;;;7.10;;
2646;SDS011;1333;50.958;6.770;2024-01-30T09:48:30;9.13;;;6.80;;
2646;SDS011;1333;50.958;6.770;2024-01-30T09:50:57;9.20;;;7.30;;
2646;SDS011;1333;50.958;6.770;2024-01-30T09:53:23;17.87;;;6.93;;
2646;SDS011;1333;50.958;6.770;2024-01-30T09:55:49;8.00;;;6.93;;
2646;SDS011;1333;50.958;6.770;2024-01-30T09:58:15;9.63;;;7.43;;
2646;SDS011;1333;50.958;6.770;2024-01-30T10:00:41;7.90;;;6.30;;
2646;SDS011;1333;50.958;6.770;2024-01-30T10:03:07;8.23;;;6.73;;
2646;SDS011;1333;50.958;6.770;2024-01-30T10:05:33;8.50;;;6.17;;
2646;SDS011;1333;50.958;6.770;2024-01-30T10:08:00;8.30;;;6.43;;
2646;SDS011;1333;50.958;6.770;2024-01-30T10:10:26;9.00;;;6.37;;
2646;SDS011;1333;50.958;6.770;2024-01-30T10:12:51;9.60;;;7.20;;
2646;SDS011;1333;50.958;6.770;2024-01-30T10:15:17;12.37;;;7.63;;
2646;SDS011;1333;50.958;6.770;2024-01-30T10:17:44;9.03;;;6.60;;
2646;SDS011;1333;50.958;6.770;2024-01-30T10:20:11;10.17;;;8.83;;
2646;SDS011;1333;50.958;6.770;2024-01-30T10:22:36;9.83;;;7.53;;
2646;SDS011;1333;50.958;6.770;2024-01-30T10:25:02;7.20;;;6.50;;
2646;SDS011;1333;50.958;6.770;2024-01-30T10:27:29;9.47;;;6.53;;
2646;SDS011;1333;50.958;6.770;2024-01-30T10:29:55;13.20;;;7.73;;
2646;SDS011;1333;50.958;6.770;2024-01-30T10:32:21;9.30;;;7.60;;
2646;SDS011;1333;50.958;6.770;2024-01-30T10:34:46;8.00;;;6.03;;
2646;SDS011;1333;50.958;6.770;2024-01-30T10:37:12;9.47;;;7.33;;
2646;SDS011;1333;50.958;6.770;2024-01-30T10:39:40;10.80;;;7.60;;
2646;SDS011;1333;50.958;6.770;2024-01-30T10:42:11;10.37;;;6.63;;
2646;SDS011;1333;50.958;6.770;2024-01-30T10:44:56;12.17;;;7.13;;
2646;SDS011;1333;50.958;6.770;2024-01-30T10:47:28;12.50;;;8.33;;
2646;SDS011;1333;50.958;6.770;2024-01-30T10:49:54;10.37;;;7.63;;
2646;SDS011;1333;50.958;6.770;2024-01-30T10:52:21;10.63;;;7.10;;
2646;SDS011;1333;50.958;6.770;2024-01-30T10:54:50;11.40;;;7.80;;
2646;SDS011;1333;50.958;6.770;2024-01-30T10:57:17;15.93;;;7.30;;
2646;SDS011;1333;50.958;6.770;2024-01-30T10:59:43;10.90;;;6.70;;
2646;SDS011;1333;50.958;6.770;2024-01-30T11:02:10;13.53;;;7.87;;
2646;SDS011;1333;50.958;6.770;2024-01-30T11:04:36;11.50;;;8.93;;
2646;SDS011;1333;50.958;6.770;2024-01-30T11:07:03;14.53;;;7.17;;
2646;SDS011;1333;50.958;6.770;2024-01-30T11:09:39;10.57;;;7.60;;
2646;SDS011;1333;50.958;6.770;2024-01-30T11:12:11;9.47;;;7.20;;
2646;SDS011;1333;50.958;6.770;2024-01-30T11:14:37;11.30;;;8.50;;
2646;SDS011;1333;50.958;6.770;2024-01-30T11:17:05;10.27;;;7.20;;
2646;SDS011;1333;50.958;6.770;2024-01-30T11:19:31;11.50;;;8.50;;
2646;SDS011;1333;50.958;6.770;2024-01-30T11:21:57;11.20;;;7.77;;
2646;SDS011;1333;50.958;6.770;2024-01-30T11:24:25;13.33;;;8.23;;
2646;SDS011;1333;50.958;6.770;2024-01-30T11:26:56;15.03;;;7.87;;
2646;SDS011;1333;50.958;6.770;2024-01-30T11:29:29;9.50;;;8.53;;
2646;SDS011;1333;50.958;6.770;2024-01-30T11:31:55;14.10;;;7.00;;
2646;SDS011;1333;50.958;6.770;2024-01-30T11:34:22;7.77;;;6.40;;
2646;SDS011;1333;50.958;6.770;2024-01-30T11:36:48;12.33;;;6.67;;
2646;SDS011;1333;50.958;6.770;2024-01-30T11:39:23;11.40;;;6.87;;
2646;SDS011;1333;50.958;6.770;2024-01-30T11:41:52;9.77;;;7.00;;
2646;SDS011;1333;50.958;6.770;2024-01-30T11:44:19;10.00;;;7.13;;
2646;SDS011;1333;50.958;6.770;2024-01-30T11:46:46;10.47;;;7.43;;
2646;SDS011;1333;50.958;6.770;2024-01-30T11:49:15;8.47;;;6.80;;
2646;SDS011;1333;50.958;6.770;2024-01-30T11:51:43;9.63;;;7.30;;
2646;SDS011;1333;50.958;6.770;2024-01-30T11:54:10;9.67;;;6.60;;
2646;SDS011;1333;50.958;6.770;2024-01-30T11:56:36;9.73;;;6.90;;
2646;SDS011;1333;50.958;6.770;2024-01-30T11:59:03;8.83;;;7.03;;
2646;SDS011;1333;50.958;6.770;2024-01-30T12:01:29;9.20;;;6.97;;
2646;SDS011;1333;50.958;6.770;2024-01-30T12:03:56;9.40;;;6.70;;
2646;SDS011;1333;50.958;6.770;2024-01-30T12:06:22;14.23;;;7.73;;
2646;SDS011;1333;50.958;6.770;2024-01-30T12:08:57;9.60;;;5.80;;
2646;SDS011;1333;50.958;6.770;2024-01-30T12:11:24;10.30;;;6.87;;
2646;SDS011;1333;50.958;6.770;2024-01-30T12:13:51;7.93;;;6.10;;
2646;SDS011;1333;50.958;6.770;2024-01-30T12:16:17;11.60;;;7.00;;
2646;SDS011;1333;50.958;6.770;2024-01-30T12:18:43;7.67;;;6.73;;
2646;SDS011;1333;50.958;6.770;2024-01-30T12:21:08;10.83;;;7.43;;
2646;SDS011;1333;50.958;6.770;2024-01-30T12:23:34;8.80;;;6.47;;
2646;SDS011;1333;50.958;6.770;2024-01-30T12:26:00;8.77;;;7.87;;
2646;SDS011;1333;50.958;6.770;2024-01-30T12:28:28;14.30;;;6.63;;
2646;SDS011;1333;50.958;6.770;2024-01-30T12:31:00;12.37;;;7.20;;
2646;SDS011;1333;50.958;6.770;2024-01-30T12:33:28;11.37;;;7.00;;
2646;SDS011;1333;50.958;6.770;2024-01-30T12:35:56;9.53;;;6.97;;
2646;SDS011;1333;50.958;6.770;2024-01-30T12:38:26;8.17;;;5.30;;
2646;SDS011;1333;50.958;6.770;2024-01-30T12:40:54;6.47;;;4.23;;
2646;SDS011;1333;50.958;6.770;2024-01-30T12:43:21;5.73;;;4.07;;
2646;SDS011;1333;50.958;6.770;2024-01-30T12:45:47;4.83;;;4.03;;
2646;SDS011;1333;50.958;6.770;2024-01-30T12:48:13;8.23;;;4.70;;
2646;SDS011;1333;50.958;6.770;2024-01-30T12:50:39;5.30;;;4.17;;
2646;SDS011;1333;50.958;6.770;2024-01-30T12:53:04;5.10;;;4.10;;
2646;SDS011;1333;50.958;6.770;2024-01-30T12:55:30;5.57;;;3.70;;
2646;SDS011;1333;50.958;6.770;2024-01-30T12:57:56;7.33;;;4.47;;
2646;SDS011;1333;50.958;6.770;2024-01-30T13:00:22;5.67;;;3.17;;
2646;SDS011;1333;50.958;6.770;2024-01-30T13:02:47;7.87;;;3.40;;
2646;SDS011;1333;50.958;6.770;2024-01-30T13:05:13;6.73;;;4.40;;
2646;SDS011;1333;50.958;6.770;2024-01-30T13:07:39;8.27;;;4.20;;
2646;SDS011;1333;50.958;6.770;2024-01-30T13:10:05;8.13;;;4.83;;
2646;SDS011;1333;50.958;6.770;2024-01-30T13:12:31;6.83;;;3.90;;
2646;SDS011;1333;50.958;6.770;2024-01-30T13:15:00;8.33;;;4.03;;
2646;SDS011;1333;50.958;6.770;2024-01-30T13:17:26;7.97;;;3.97;;
2646;SDS011;1333;50.958;6.770;2024-01-30T13:19:52;5.20;;;4.07;;
2646;SDS011;1333;50.958;6.770;2024-01-30T13:22:19;5.97;;;4.17;;
2646;SDS011;1333;50.958;6.770;2024-01-30T13:24:46;14.93;;;4.40;;
2646;SDS011;1333;50.958;6.770;2024-01-30T13:27:12;4.50;;;4.10;;
2646;SDS011;1333;50.958;6.770;2024-01-30T13:29:37;5.97;;;4.00;;
2646;SDS011;1333;50.958;6.770;2024-01-30T13:32:03;5.70;;;3.93;;
2646;SDS011;1333;50.958;6.770;2024-01-30T13:34:29;4.97;;;4.43;;
2646;SDS011;1333;50.958;6.770;2024-01-30T13:36:54;7.10;;;4.53;;
2646;SDS011;1333;50.958;6.770;2024-01-30T13:39:20;5.57;;;4.20;;
2646;SDS011;1333;50.958;6.770;2024-01-30T13:41:45;5.30;;;3.97;;
2646;SDS011;1333;50.958;6.770;2024-01-30T13:44:11;6.43;;;4.73;;
2646;SDS011;1333;50.958;6.770;2024-01-30T13:46:37;11.70;;;5.33;;
2646;SDS011;1333;50.958;6.770;2024-01-30T13:49:04;4.80;;;4.30;;
2646;SDS011;1333;50.958;6.770;2024-01-30T13:51:29;6.00;;;4.87;;
2646;SDS011;1333;50.958;6.770;2024-01-30T13:53:55;5.13;;;3.83;;
2646;SDS011;1333;50.958;6.770;2024-01-30T13:56:20;7.27;;;4.30;;
2646;SDS011;1333;50.958;6.770;2024-01-30T13:58:48;9.83;;;4.23;;
2646;SDS011;1333;50.958;6.770;2024-01-30T14:01:14;5.30;;;4.53;;
2646;SDS011;1333;50.958;6.770;2024-01-30T14:03:40;10.33;;;3.87;;
2646;SDS011;1333;50.958;6.770;2024-01-30T14:06:06;6.80;;;5.27;;
2646;SDS011;1333;50.958;6.770;2024-01-30T14:08:31;4.87;;;4.20;;
2646;SDS011;1333;50.958;6.770;2024-01-30T14:10:57;6.47;;;4.37;;
2646;SDS011;1333;50.958;6.770;2024-01-30T14:13:23;8.53;;;4.70;;
2646;SDS011;1333;50.958;6.770;2024-01-30T14:15:50;6.43;;;4.53;;
2646;SDS011;1333;50.958;6.770;2024-01-30T14:18:16;9.20;;;4.47;;
2646;SDS011;1333;50.958;6.770;2024-01-30T14:20:41;5.67;;;4.67;;
2646;SDS011;1333;50.958;6.770;2024-01-30T14:23:07;7.77;;;5.03;;
2646;SDS011;1333;50.958;6.770;2024-01-30T14:25:32;7.17;;;4.57;;
2646;SDS011;1333;50.958;6.770;2024-01-30T14:27:58;9.23;;;5.20;;
2646;SDS011;1333;50.958;6.770;2024-01-30T14:30:23;6.63;;;5.30;;
2646;SDS011;1333;50.958;6.770;2024-01-30T14:32:49;7.07;;;5.07;;
2646;SDS011;1333;50.958;6.770;2024-01-30T14:35:15;5.60;;;4.77;;
2646;SDS011;1333;50.958;6.770;2024-01-30T14:37:41;5.93;;;5.23;;
2646;SDS011;1333;50.958;6.770;2024-01-30T14:40:07;5.83;;;4.07;;
2646;SDS011;1333;50.958;6.770;2024-01-30T14:42:33;8.73;;;5.13;;
2646;SDS011;1333;50.958;6.770;2024-01-30T14:44:58;8.23;;;5.07;;
2646;SDS011;1333;50.958;6.770;2024-01-30T14:47:24;6.60;;;3.70;;
2646;SDS011;1333;50.958;6.770;2024-01-30T14:49:50;5.93;;;4.23;;
2646;SDS011;1333;50.958;6.770;2024-01-30T14:52:17;7.43;;;4.30;;
2646;SDS011;1333;50.958;6.770;2024-01-30T14:54:42;8.43;;;4.53;;
2646;SDS011;1333;50.958;6.770;2024-01-30T14:57:08;8.20;;;4.77;;
2646;SDS011;1333;50.958;6.770;2024-01-30T14:59:34;7.90;;;4.13;;